createdAt,value
2018-07-12T00:02:13.774Z,95206.14
2018-07-12T00:04:39.780Z,95211.09
2018-07-12T00:07:05.785Z,95211.66
2018-07-12T00:09:31.815Z,95209.31
2018-07-12T00:11:57.801Z,95208.33
2018-07-12T00:14:23.811Z,95208.50
2018-07-12T00:16:49.820Z,95214.83
2018-07-12T00:19:15.828Z,95214.02
2018-07-12T00:21:41.836Z,95215.23
2018-07-12T00:24:07.841Z,95220.35
2018-07-12T00:26:33.851Z,95209.88
2018-07-12T00:28:59.857Z,95215.81
2018-07-12T00:31:25.863Z,95215.41
2018-07-12T00:33:51.957Z,95210.08
2018-07-12T00:36:17.884Z,95213.45
2018-07-12T00:38:43.911Z,95212.23
2018-07-12T00:41:09.930Z,95212.23
2018-07-12T00:43:35.935Z,95209.31
2018-07-12T00:46:01.953Z,95211.66
2018-07-12T00:48:27.959Z,95214.02
2018-07-12T00:50:53.968Z,95213.05
2018-07-12T00:53:19.979Z,95226.28
2018-07-12T00:55:45.987Z,95217.59
2018-07-12T00:58:11.996Z,95215.41
2018-07-12T01:00:38.002Z,95216.78
2018-07-12T01:03:04.016Z,95211.66
2018-07-12T01:05:30.015Z,95220.35
2018-07-12T01:07:56.032Z,95214.42
2018-07-12T01:10:22.038Z,95216.78
2018-07-12T01:12:48.047Z,95214.83
2018-07-12T01:15:14.046Z,95214.83
2018-07-12T01:17:40.051Z,95204.36
2018-07-12T01:20:06.052Z,95213.85
2018-07-12T01:22:32.052Z,95215.23
2018-07-12T01:24:58.065Z,95214.42
2018-07-12T01:27:24.066Z,95215.81
2018-07-12T01:29:50.072Z,95216.61
2018-07-12T01:32:16.070Z,95212.06
2018-07-12T01:34:42.076Z,95214.23
2018-07-12T01:37:08.082Z,95215.61
2018-07-12T01:39:34.083Z,95211.27
2018-07-12T01:42:00.095Z,95210.28
2018-07-12T01:44:26.100Z,95215.61
2018-07-12T01:46:52.094Z,95215.23
2018-07-12T01:49:18.104Z,95213.05
2018-07-12T01:51:44.104Z,95218.16
2018-07-12T01:54:10.114Z,95207.52
2018-07-12T01:56:36.113Z,95208.33
2018-07-12T01:59:02.121Z,95211.47
2018-07-12T02:01:28.129Z,95216.98
2018-07-12T02:03:54.150Z,95216.01
2018-07-12T02:06:20.164Z,95213.25
2018-07-12T02:08:46.178Z,95213.45
2018-07-12T02:11:12.182Z,95213.85
2018-07-12T02:13:38.188Z,95214.02
2018-07-12T02:16:04.194Z,95208.91
2018-07-12T02:18:30.198Z,95209.71
2018-07-12T02:20:56.216Z,95213.85
2018-07-12T02:23:22.225Z,95215.23
2018-07-12T02:25:48.241Z,95212.84
2018-07-12T02:28:14.239Z,95220.75
2018-07-12T02:30:40.242Z,95216.98
2018-07-12T02:33:06.241Z,95216.61
2018-07-12T02:35:32.248Z,95217.59
2018-07-12T02:37:58.248Z,95217.76
2018-07-12T02:40:24.262Z,95214.23
2018-07-12T02:42:50.271Z,95216.98
2018-07-12T02:45:16.275Z,95217.19
2018-07-12T02:47:42.277Z,95222.14
2018-07-12T02:50:08.281Z,95221.13
2018-07-12T02:52:34.282Z,95217.99
2018-07-12T02:55:00.314Z,95221.13
2018-07-12T02:57:26.323Z,95221.13
2018-07-12T02:59:52.320Z,95222.91
2018-07-12T03:02:18.323Z,95222.91
2018-07-12T03:04:44.332Z,95221.53
2018-07-12T03:07:10.378Z,95222.51
2018-07-12T03:09:36.394Z,95224.90
2018-07-12T03:12:02.409Z,95218.37
2018-07-12T03:14:28.402Z,95212.06
2018-07-12T03:16:54.419Z,95218.37
2018-07-12T03:19:20.424Z,95213.45
2018-07-12T03:21:46.424Z,95211.47
2018-07-12T03:24:12.432Z,95215.23
2018-07-12T03:26:38.431Z,95206.55
2018-07-12T03:29:04.445Z,95219.75
2018-07-12T03:31:30.454Z,95217.59
2018-07-12T03:33:56.460Z,95215.81
2018-07-12T03:36:22.476Z,95219.38
2018-07-12T03:38:48.480Z,95216.21
2018-07-12T03:41:14.486Z,95217.99
2018-07-12T03:43:40.492Z,95218.37
2018-07-12T03:46:06.510Z,95218.37
2018-07-12T03:48:32.520Z,95217.80
2018-07-12T03:50:58.527Z,95216.61
2018-07-12T03:53:24.531Z,95221.53
2018-07-12T03:55:50.547Z,95222.91
2018-07-12T03:58:16.550Z,95227.45
2018-07-12T04:00:42.551Z,95230.42
2018-07-12T04:03:08.563Z,95220.96
2018-07-12T04:05:34.568Z,95221.94
2018-07-12T04:08:00.579Z,95223.89
2018-07-12T04:10:26.592Z,95224.49
2018-07-12T04:12:52.604Z,95226.89
2018-07-12T04:15:18.618Z,95229.65
2018-07-12T04:17:44.662Z,95235.78
2018-07-12T04:20:10.668Z,95241.70
2018-07-12T04:22:36.673Z,95234.63
2018-07-12T04:25:02.683Z,95238.04
2018-07-12T04:27:28.690Z,95237.47
2018-07-12T04:29:54.692Z,95241.77
2018-07-12T04:32:20.696Z,95242.75
2018-07-12T04:34:46.743Z,95240.03
2018-07-12T04:37:12.708Z,95236.86
2018-07-12T04:39:38.708Z,95238.08
2018-07-12T04:42:04.712Z,95237.06
2018-07-12T04:44:30.714Z,95243.19
2018-07-12T04:46:56.714Z,95245.95
2018-07-12T04:49:22.720Z,95248.14
2018-07-12T04:51:48.728Z,95249.12
2018-07-12T04:54:14.754Z,95250.70
2018-07-12T04:56:40.790Z,95246.56
2018-07-12T04:59:06.778Z,95248.98
2018-07-12T05:01:32.778Z,95252.52
2018-07-12T05:03:58.911Z,95253.13
2018-07-12T05:06:24.918Z,95251.52
2018-07-12T05:08:50.933Z,95251.52
2018-07-12T05:11:16.939Z,95251.11
2018-07-12T05:13:42.958Z,95253.06
2018-07-12T05:16:08.992Z,95250.91
2018-07-12T05:18:34.947Z,95251.48
2018-07-12T05:21:01.032Z,95254.64
2018-07-12T05:23:27.009Z,95256.02
2018-07-12T05:25:53.017Z,95258.95
2018-07-12T05:28:19.038Z,95257.57
2018-07-12T05:30:45.107Z,95260.57
2018-07-12T05:33:11.056Z,95262.92
2018-07-12T05:35:37.061Z,95265.69
2018-07-12T05:38:03.073Z,95268.62
2018-07-12T05:40:29.091Z,95264.52
2018-07-12T05:42:55.115Z,95271.61
2018-07-12T05:45:21.126Z,95276.73
2018-07-12T05:47:47.162Z,95277.14
2018-07-12T05:50:13.164Z,95273.97
2018-07-12T05:52:39.168Z,95273.00
2018-07-12T05:55:05.310Z,95277.14
2018-07-12T05:57:31.314Z,95277.14
2018-07-12T05:59:57.314Z,95273.40
2018-07-12T06:02:23.324Z,95276.16
2018-07-12T06:04:49.337Z,95275.16
2018-07-12T06:07:15.352Z,95275.16
2018-07-12T06:09:41.361Z,95278.16
2018-07-12T06:12:07.415Z,95279.12
2018-07-12T06:14:33.425Z,95275.16
2018-07-12T06:16:59.467Z,95273.20
2018-07-12T06:19:25.445Z,95278.73
2018-07-12T06:21:51.468Z,95279.12
2018-07-12T06:24:17.484Z,95279.00
2018-07-12T06:26:43.485Z,95277.78
2018-07-12T06:29:09.497Z,95285.09
2018-07-12T06:31:35.506Z,95283.30
2018-07-12T06:34:01.510Z,95282.91
2018-07-12T06:36:27.515Z,95293.55
2018-07-12T06:38:53.525Z,95281.72
2018-07-12T06:41:19.531Z,95281.72
2018-07-12T06:43:45.540Z,95285.45
2018-07-12T06:46:11.548Z,95281.31
2018-07-12T06:48:37.586Z,95281.31
2018-07-12T06:51:03.581Z,95274.82
2018-07-12T06:53:29.587Z,95276.20
2018-07-12T06:55:55.597Z,95279.36
2018-07-12T06:58:21.617Z,95277.98
2018-07-12T07:00:47.620Z,95274.22
2018-07-12T07:03:13.656Z,95277.58
2018-07-12T07:05:39.858Z,95273.44
2018-07-12T07:08:05.932Z,95279.36
2018-07-12T07:10:31.942Z,95278.16
2018-07-12T07:12:57.961Z,95273.64
2018-07-12T07:15:23.969Z,95276.03
2018-07-12T07:17:50.030Z,95277.81
2018-07-12T07:20:16.113Z,95270.34
2018-07-12T07:22:42.057Z,95271.36
2018-07-12T07:25:08.173Z,95267.82
2018-07-12T07:27:34.154Z,95273.34
2018-07-12T07:30:00.176Z,95269.81
2018-07-12T07:32:26.185Z,95273.34
2018-07-12T07:34:52.184Z,95270.18
2018-07-12T07:37:18.183Z,95272.94
2018-07-12T07:39:44.192Z,95269.81
2018-07-12T07:42:10.196Z,95273.95
2018-07-12T07:44:36.201Z,95267.05
2018-07-12T07:47:02.218Z,95271.56
2018-07-12T07:49:28.209Z,95266.03
2018-07-12T07:51:54.221Z,95267.42
2018-07-12T07:54:20.227Z,95273.58
2018-07-12T07:56:46.250Z,95273.75
2018-07-12T07:59:12.263Z,95271.97
2018-07-12T08:01:38.273Z,95267.08
2018-07-12T08:04:04.291Z,95264.35
2018-07-12T08:06:30.286Z,95268.91
2018-07-12T08:08:56.291Z,95266.14
2018-07-12T08:11:22.288Z,95268.73
2018-07-12T08:13:48.346Z,95265.80
2018-07-12T08:16:14.347Z,95269.17
2018-07-12T08:18:40.334Z,95259.38
2018-07-12T08:21:06.341Z,95265.34
2018-07-12T08:23:32.355Z,95264.46
2018-07-12T08:25:58.341Z,95261.49
2018-07-12T08:28:24.354Z,95259.51
2018-07-12T08:30:50.351Z,95258.44
2018-07-12T08:33:16.378Z,95264.16
2018-07-12T08:35:42.368Z,95255.64
2018-07-12T08:38:08.369Z,95264.94
2018-07-12T08:40:34.395Z,95254.45
2018-07-12T08:43:00.413Z,95259.17
2018-07-12T08:45:26.414Z,95256.81
2018-07-12T08:47:52.467Z,95253.24
2018-07-12T08:50:18.475Z,95257.79
2018-07-12T08:52:44.484Z,95254.83
2018-07-12T08:55:10.493Z,95250.68
2018-07-12T08:57:36.529Z,95253.44
2018-07-12T09:00:02.541Z,95253.84
2018-07-12T09:02:28.549Z,95251.25
2018-07-12T09:04:54.551Z,95255.97
2018-07-12T09:07:20.554Z,95250.28
2018-07-12T09:09:46.568Z,95251.66
2018-07-12T09:12:12.554Z,95250.28
2018-07-12T09:14:38.659Z,95253.84
2018-07-12T09:17:04.671Z,95250.08
2018-07-12T09:19:30.670Z,95250.08
2018-07-12T09:21:56.682Z,95252.84
2018-07-12T09:24:22.720Z,95252.84
2018-07-12T09:26:48.722Z,95245.36
2018-07-12T09:29:14.744Z,95250.88
2018-07-12T09:31:40.732Z,95249.10
2018-07-12T09:34:06.731Z,95248.33
2018-07-12T09:36:32.743Z,95246.94
2018-07-12T09:38:58.782Z,95248.33
2018-07-12T09:41:24.826Z,95244.75
2018-07-12T09:43:50.830Z,95246.13
2018-07-12T09:46:16.870Z,95241.59
2018-07-12T09:48:42.888Z,95244.92
2018-07-12T09:51:08.943Z,95234.68
2018-07-12T09:53:34.949Z,95235.25
2018-07-12T09:56:01.064Z,95231.11
2018-07-12T09:58:26.958Z,95227.38
2018-07-12T10:00:52.968Z,95227.77
2018-07-12T10:03:18.972Z,95223.23
2018-07-12T10:05:44.977Z,95219.48
2018-07-12T10:08:11.274Z,95219.09
2018-07-12T10:10:37.337Z,95220.87
2018-07-12T10:13:03.265Z,95222.45
2018-07-12T10:15:29.294Z,95223.63
2018-07-12T10:17:55.297Z,95215.75
2018-07-12T10:20:21.311Z,95215.75
2018-07-12T10:22:47.314Z,95219.89
2018-07-12T10:25:13.337Z,95220.47
2018-07-12T10:27:39.385Z,95221.84
2018-07-12T10:30:05.430Z,95221.84
2018-07-12T10:32:31.439Z,95220.47
2018-07-12T10:34:57.442Z,95216.73
2018-07-12T10:37:23.488Z,95217.70
2018-07-12T10:39:49.483Z,95211.20
2018-07-12T10:42:15.476Z,95209.42
2018-07-12T10:44:41.589Z,95205.27
2018-07-12T10:47:07.606Z,95208.61
2018-07-12T10:49:33.607Z,95208.61
2018-07-12T10:51:59.612Z,95203.89
2018-07-12T10:54:25.617Z,95202.52
2018-07-12T10:56:51.657Z,95202.52
2018-07-12T10:59:17.695Z,95204.70
2018-07-12T11:01:43.751Z,95204.13
2018-07-12T11:04:09.779Z,95202.14
2018-07-12T11:06:35.827Z,95195.03
2018-07-12T11:09:01.872Z,95193.02
2018-07-12T11:11:27.852Z,95193.62
2018-07-12T11:13:53.851Z,95197.77
2018-07-12T11:16:19.889Z,95193.78
2018-07-12T11:18:45.869Z,95193.78
2018-07-12T11:21:11.956Z,95190.63
2018-07-12T11:23:37.915Z,95187.66
2018-07-12T11:26:03.921Z,95182.53
2018-07-12T11:28:29.920Z,95181.33
2018-07-12T11:30:55.972Z,95182.13
2018-07-12T11:33:21.954Z,95179.94
2018-07-12T11:35:47.962Z,95179.38
2018-07-12T11:38:13.960Z,95176.20
2018-07-12T11:40:39.970Z,95167.52
2018-07-12T11:43:05.998Z,95165.94
2018-07-12T11:45:32.013Z,95164.55
2018-07-12T11:47:58.016Z,95167.72
2018-07-12T11:50:24.071Z,95161.19
2018-07-12T11:52:50.083Z,95160.98
2018-07-12T11:55:16.085Z,95163.74
2018-07-12T11:57:42.148Z,95160.98
2018-07-12T12:00:08.173Z,95162.77
2018-07-12T12:02:34.170Z,95161.38
2018-07-12T12:05:00.182Z,95161.79
2018-07-12T12:07:26.203Z,95159.20
2018-07-12T12:09:52.210Z,95162.36
2018-07-12T12:12:18.216Z,95159.59
2018-07-12T12:14:44.222Z,95161.95
2018-07-12T12:17:10.219Z,95159.20
2018-07-12T12:19:36.265Z,95158.02
2018-07-12T12:22:02.272Z,95162.94
2018-07-12T12:24:28.267Z,95156.03
2018-07-12T12:26:54.299Z,95157.41
2018-07-12T12:29:20.303Z,95157.41
2018-07-12T12:31:46.313Z,95151.48
2018-07-12T12:34:12.335Z,95151.48
2018-07-12T12:36:38.351Z,95150.51
2018-07-12T12:39:04.376Z,95145.96
2018-07-12T12:41:30.390Z,95149.12
2018-07-12T12:43:56.391Z,95145.96
2018-07-12T12:46:22.390Z,95140.84
2018-07-12T12:48:48.394Z,95134.91
2018-07-12T12:51:14.435Z,95139.86
2018-07-12T12:53:40.437Z,95141.81
2018-07-12T12:56:06.470Z,95141.81
2018-07-12T12:58:32.486Z,95142.22
2018-07-12T13:00:58.488Z,95137.09
2018-07-12T13:03:24.497Z,95143.20
2018-07-12T13:05:50.493Z,95126.62
2018-07-12T13:08:16.495Z,95134.91
2018-07-12T13:10:42.513Z,95134.54
2018-07-12T13:13:08.546Z,95135.92
2018-07-12T13:15:34.546Z,95147.34
2018-07-12T13:18:00.578Z,95149.12
2018-07-12T13:20:26.586Z,95150.11
2018-07-12T13:22:52.608Z,95145.96
2018-07-12T13:25:18.596Z,95150.11
2018-07-12T13:27:44.635Z,95150.11
2018-07-12T13:30:10.610Z,95153.87
2018-07-12T13:32:36.708Z,95154.25
2018-07-12T13:35:02.715Z,95162.16
2018-07-12T13:37:28.722Z,95161.75
2018-07-12T13:39:54.770Z,95166.67
2018-07-12T13:42:20.773Z,95164.52
2018-07-12T13:44:46.782Z,95170.45
2018-07-12T13:47:12.785Z,95163.13
2018-07-12T13:49:38.806Z,95164.95
2018-07-12T13:52:04.840Z,95169.91
2018-07-12T13:54:30.806Z,95168.16
2018-07-12T13:56:56.824Z,95167.00
2018-07-12T13:59:22.826Z,95170.17
2018-07-12T14:01:48.847Z,95161.52
2018-07-12T14:04:14.838Z,95171.18
2018-07-12T14:06:40.874Z,95174.75
2018-07-12T14:09:06.875Z,95168.05
2018-07-12T14:11:32.846Z,95168.34
2018-07-12T14:13:58.894Z,95164.80
2018-07-12T14:16:25.031Z,95171.71
2018-07-12T14:18:51.079Z,95165.38
2018-07-12T14:21:17.095Z,95166.59
2018-07-12T14:23:43.141Z,95161.44
2018-07-12T14:26:09.185Z,95165.95
2018-07-12T14:28:35.172Z,95163.19
2018-07-12T14:31:01.204Z,95163.83
2018-07-12T14:33:27.191Z,95169.35
2018-07-12T14:35:53.200Z,95160.86
2018-07-12T14:38:19.199Z,95161.09
2018-07-12T14:40:45.210Z,95154.59
2018-07-12T14:43:11.571Z,95154.80
2018-07-12T14:45:37.591Z,95153.62
2018-07-12T14:48:03.604Z,95154.42
2018-07-12T14:50:29.715Z,95151.48
2018-07-12T14:52:55.769Z,95154.66
2018-07-12T14:55:21.877Z,95148.35
2018-07-12T14:57:47.853Z,95143.40
2018-07-12T15:00:13.867Z,95146.37
2018-07-12T15:02:39.975Z,95150.52
2018-07-12T15:05:05.897Z,95146.70
2018-07-12T15:07:31.908Z,95144.98
2018-07-12T15:09:57.922Z,95140.90
2018-07-12T15:12:23.926Z,95133.62
2018-07-12T15:14:49.946Z,95140.96
2018-07-12T15:17:15.971Z,95138.60
2018-07-12T15:19:41.999Z,95134.08
2018-07-12T15:22:08.008Z,95136.04
2018-07-12T15:24:34.301Z,95133.08
2018-07-12T15:27:00.209Z,95131.69
2018-07-12T15:29:26.623Z,95136.64
2018-07-12T15:31:52.492Z,95130.71
2018-07-12T15:34:18.499Z,95129.73
2018-07-12T15:36:44.517Z,95128.16
2018-07-12T15:39:10.518Z,95129.13
2018-07-12T15:41:36.522Z,95130.34
2018-07-12T15:44:02.584Z,95127.78
2018-07-12T15:46:28.527Z,95130.14
2018-07-12T15:48:54.532Z,95123.23
2018-07-12T15:51:20.554Z,95131.15
2018-07-12T15:53:46.552Z,95129.22
2018-07-12T15:56:12.579Z,95129.11
2018-07-12T15:58:38.589Z,95124.95
2018-07-12T16:01:04.596Z,95118.05
2018-07-12T16:03:30.604Z,95126.71
2018-07-12T16:05:56.631Z,95127.12
2018-07-12T16:08:22.652Z,95125.97
2018-07-12T16:10:48.715Z,95127.75
2018-07-12T16:13:14.764Z,95126.77
2018-07-12T16:15:40.846Z,95129.91
2018-07-12T16:18:06.844Z,95132.70
2018-07-12T16:20:32.850Z,95133.11
2018-07-12T16:22:58.858Z,95127.20
2018-07-12T16:25:24.860Z,95130.02
2018-07-12T16:27:51.009Z,95136.94
2018-07-12T16:30:19.963Z,95136.94
2018-07-12T16:32:46.032Z,95136.36
2018-07-12T16:35:12.035Z,95138.95
2018-07-12T16:37:38.080Z,95136.96
2018-07-12T16:40:04.081Z,95136.65
2018-07-12T16:42:30.116Z,95135.87
2018-07-12T16:44:56.271Z,95136.05
2018-07-12T16:47:22.272Z,95139.41
2018-07-12T16:49:48.291Z,95135.27
2018-07-12T16:52:14.975Z,95140.97
2018-07-12T16:54:40.977Z,95133.45
2018-07-12T16:57:06.988Z,95144.91
2018-07-12T16:59:33.028Z,95140.94
2018-07-12T17:01:59.095Z,95143.50
2018-07-12T17:04:25.097Z,95136.22
2018-07-12T17:06:51.103Z,95139.04
2018-07-12T17:09:17.220Z,95139.06
2018-07-12T17:11:43.203Z,95143.64
2018-07-12T17:14:09.260Z,95145.05
2018-07-12T17:16:35.219Z,95145.25
2018-07-12T17:19:01.232Z,95153.75
2018-07-12T17:21:27.240Z,95151.56
2018-07-12T17:23:53.299Z,95153.49
2018-07-12T17:26:19.314Z,95157.84
2018-07-12T17:28:45.316Z,95154.84
2018-07-12T17:31:11.412Z,95157.20
2018-07-12T17:33:37.497Z,95157.44
2018-07-12T17:36:03.412Z,95157.27
2018-07-12T17:38:29.471Z,95155.88
2018-07-12T17:40:55.490Z,95158.06
2018-07-12T17:43:21.535Z,95157.09
2018-07-12T17:45:47.555Z,95159.28
2018-07-12T17:48:13.554Z,95160.66
2018-07-12T17:50:39.599Z,95159.68
2018-07-12T17:53:05.608Z,95164.26
2018-07-12T17:55:31.622Z,95164.48
2018-07-12T17:57:57.624Z,95161.12
2018-07-12T18:00:23.672Z,95162.70
2018-07-12T18:02:49.681Z,95169.78
2018-07-12T18:05:15.864Z,95175.72
2018-07-12T18:07:41.732Z,95172.15
2018-07-12T18:10:07.762Z,95173.50
2018-07-12T18:12:33.759Z,95175.09
2018-07-12T18:14:59.771Z,95177.82
2018-07-12T18:17:25.818Z,95180.77
2018-07-12T18:19:51.826Z,95181.37
2018-07-12T18:22:17.862Z,95180.36
2018-07-12T18:24:43.844Z,95181.73
2018-07-12T18:27:09.850Z,95181.70
2018-07-12T18:29:35.875Z,95187.64
2018-07-12T18:32:01.905Z,95180.73
2018-07-12T18:34:27.925Z,95188.05
2018-07-12T18:36:53.960Z,95196.54
2018-07-12T18:39:20.022Z,95192.97
2018-07-12T18:41:46.027Z,95195.09
2018-07-12T18:44:12.071Z,95191.16
2018-07-12T18:46:38.075Z,95195.30
2018-07-12T18:49:04.092Z,95200.42
2018-07-12T18:51:30.093Z,95209.30
2018-07-12T18:53:56.093Z,95206.33
2018-07-12T18:56:22.181Z,95219.95
2018-07-12T18:58:48.189Z,95213.04
2018-07-12T19:01:14.461Z,95225.67
2018-07-12T19:03:40.487Z,95229.05
2018-07-12T19:06:06.491Z,95226.69
2018-07-12T19:08:32.546Z,95227.66
2018-07-12T19:10:58.681Z,95228.64
2018-07-12T19:13:24.685Z,95234.81
2018-07-12T19:15:50.700Z,95235.39
2018-07-12T19:18:16.701Z,95240.34
2018-07-12T19:20:42.719Z,95235.95
2018-07-12T19:23:08.739Z,95233.77
2018-07-12T19:25:34.761Z,95232.79
2018-07-12T19:28:00.771Z,95232.99
2018-07-12T19:30:26.771Z,95238.52
2018-07-12T19:32:52.783Z,95237.55
2018-07-12T19:40:29.032Z,95233.13
2018-07-12T19:45:39.134Z,95234.89
2018-07-12T19:48:05.150Z,95236.27
2018-07-12T19:50:31.163Z,95239.20
2018-07-12T19:52:57.203Z,95242.98
2018-07-12T19:55:23.170Z,95242.38
2018-07-12T19:57:49.183Z,95243.18
2018-07-12T20:00:15.227Z,95244.73
2018-07-12T20:02:41.209Z,95248.50
2018-07-12T20:05:07.321Z,95252.66
2018-07-12T20:07:33.345Z,95243.95
2018-07-12T20:09:59.387Z,95252.82
2018-07-12T20:12:25.386Z,95256.97
2018-07-12T20:14:51.399Z,95254.78
2018-07-12T20:17:17.398Z,95257.14
2018-07-12T20:19:43.454Z,95260.91
2018-07-12T20:22:09.454Z,95259.70
2018-07-12T20:24:35.465Z,95258.89
2018-07-12T20:27:01.471Z,95263.84
2018-07-12T20:29:27.473Z,95262.64
2018-07-12T20:31:53.479Z,95262.47
2018-07-12T20:34:19.493Z,95263.04
2018-07-12T20:36:45.499Z,95259.87
2018-07-12T20:39:11.514Z,95262.64
2018-07-12T20:41:37.524Z,95260.88
2018-07-12T20:44:03.533Z,95254.34
2018-07-12T20:46:29.541Z,95253.97
2018-07-12T20:48:55.542Z,95260.47
2018-07-12T20:51:21.551Z,95264.62
2018-07-12T20:53:47.729Z,95264.39
2018-07-12T20:56:13.722Z,95263.81
2018-07-12T20:58:39.737Z,95265.20
2018-07-12T21:01:05.768Z,95265.20
2018-07-12T21:03:31.748Z,95270.72
2018-07-12T21:05:57.775Z,95268.53
2018-07-12T21:08:23.824Z,95275.45
2018-07-12T21:10:49.799Z,95270.89
2018-07-12T21:13:15.812Z,95275.24
2018-07-12T21:15:41.823Z,95278.00
2018-07-12T21:18:07.844Z,95271.67
2018-07-12T21:20:33.850Z,95274.23
2018-07-12T21:22:59.864Z,95277.20
2018-07-12T21:25:25.880Z,95280.16
2018-07-12T21:27:51.888Z,95284.31
2018-07-12T21:30:17.903Z,95291.22
2018-07-12T21:32:43.920Z,95291.59
2018-07-12T21:35:09.936Z,95279.16
2018-07-12T21:37:35.946Z,95280.53
2018-07-12T21:40:01.965Z,95280.16
2018-07-12T21:42:27.972Z,95276.80
2018-07-12T21:44:53.989Z,95280.53
2018-07-12T21:47:19.999Z,95284.52
2018-07-12T21:49:46.017Z,95285.08
2018-07-12T21:52:12.027Z,95287.07
2018-07-12T21:54:38.042Z,95282.92
2018-07-12T21:57:04.054Z,95285.08
2018-07-12T21:59:30.070Z,95284.31
2018-07-12T22:01:56.092Z,95279.52
2018-07-12T22:04:22.098Z,95281.31
2018-07-12T22:06:48.106Z,95286.44
2018-07-12T22:09:14.161Z,95278.34
2018-07-12T22:11:40.183Z,95276.96
2018-07-12T22:14:06.211Z,95278.72
2018-07-12T22:16:32.250Z,95276.96
2018-07-12T22:18:58.262Z,95280.30
2018-07-12T22:21:24.284Z,95277.94
2018-07-12T22:23:50.330Z,95275.17
2018-07-12T22:26:16.345Z,95278.11
2018-07-12T22:28:42.384Z,95277.94
2018-07-12T22:31:08.401Z,95275.17
2018-07-12T22:33:34.406Z,95278.72
2018-07-12T22:36:00.422Z,95276.76
2018-07-12T22:38:26.440Z,95272.61
2018-07-12T22:40:52.452Z,95273.02
2018-07-12T22:43:18.499Z,95275.37
2018-07-12T22:45:44.501Z,95279.36
2018-07-12T22:48:10.568Z,95280.33
2018-07-12T22:50:36.545Z,95281.71
2018-07-12T22:53:02.549Z,95285.45
2018-07-12T22:55:28.564Z,95287.41
2018-07-12T22:57:54.569Z,95290.17
2018-07-12T23:00:20.578Z,95285.83
2018-07-12T23:02:46.595Z,95286.64
2018-07-12T23:05:12.620Z,95283.23
2018-07-12T23:07:38.626Z,95285.42
2018-07-12T23:10:04.638Z,95282.83
2018-07-12T23:12:30.649Z,95278.31
2018-07-12T23:14:56.652Z,95275.14
2018-07-12T23:17:22.663Z,95275.14
2018-07-12T23:19:48.674Z,95280.84
2018-07-12T23:22:14.680Z,95276.69
2018-07-12T23:24:40.773Z,95275.31
2018-07-12T23:27:06.711Z,95275.72
2018-07-12T23:29:32.722Z,95272.95
2018-07-12T23:31:58.737Z,95275.14
2018-07-12T23:34:24.742Z,95280.06
2018-07-12T23:36:50.754Z,95282.05
2018-07-12T23:39:16.807Z,95276.52
2018-07-12T23:41:42.830Z,95271.77
2018-07-12T23:44:08.845Z,95276.92
2018-07-12T23:46:34.855Z,95277.30
2018-07-12T23:49:00.867Z,95273.16
2018-07-12T23:51:26.876Z,95268.23
2018-07-12T23:53:52.893Z,95270.39
2018-07-12T23:56:18.948Z,95269.21
2018-07-12T23:58:44.968Z,95269.21
